Time;durP1;ratioP1;P1;durP2;ratioP2;P2;SDS_P1;SDS_P2;PMS_P1;PMS_P2;Temp;Humidity;BMP_temperature;BMP_pressure;BME280_temperature;BME280_humidity;BME280_pressure;Samples;Min_cycle;Max_cycle;Signal;HPM_P1;HPM_P2
2024/04/11 00:00:50;;;;;;;0.28;0.08;;;;;;;25.80;32.93;100917.66;5364549;26;95929;-46
2024/04/11 00:03:20;;;;;;;0.03;0.03;;;;;;;25.79;33.02;100911.41;5365497;26;94621;-46
2024/04/11 00:05:48;;;;;;;0.20;0.10;;;;;;;25.77;32.75;100916.22;5364549;26;93938;-47
2024/04/11 00:08:18;;;;;;;0.63;0.20;;;;;;;25.78;32.84;100922.50;5364462;26;95897;-47
2024/04/11 00:10:46;;;;;;;0.20;0.17;;;;;;;25.78;32.88;100917.09;5364454;26;96196;-46
2024/04/11 00:13:18;;;;;;;0.10;0.10;;;;;;;25.77;33.00;100918.13;5365603;26;93898;-47
2024/04/11 00:15:51;;;;;;;0.10;0.10;;;;;;;25.75;33.00;100922.91;5365535;26;94041;-47
2024/04/11 00:18:21;;;;;;;0.80;0.28;;;;;;;25.76;33.13;100921.88;5364794;26;96249;-47
2024/04/11 00:20:49;;;;;;;0.35;0.20;;;;;;;25.75;33.00;100917.50;5365342;26;95776;-46
2024/04/11 00:23:19;;;;;;;0.90;0.20;;;;;;;25.74;32.94;100932.13;5365177;26;93843;-46
2024/04/11 00:25:53;;;;;;;0.32;0.20;;;;;;;25.74;32.85;100923.97;5364957;26;93951;-46
2024/04/11 00:28:25;;;;;;;0.95;0.30;;;;;;;25.74;32.98;100929.41;5363873;26;95877;-47
2024/04/11 00:30:55;;;;;;;0.57;0.20;;;;;;;25.74;32.80;100937.53;5364504;26;96085;-47
2024/04/11 00:33:25;;;;;;;0.50;0.30;;;;;;;25.71;33.06;100936.09;5365223;26;94017;-46
2024/04/11 00:35:53;;;;;;;0.13;0.13;;;;;;;25.72;33.03;100939.63;5364728;26;93947;-47
2024/04/11 00:38:23;;;;;;;0.38;0.20;;;;;;;25.71;32.94;100938.00;5364280;26;96011;-46
2024/04/11 00:40:54;;;;;;;0.38;0.10;;;;;;;25.71;33.10;100932.56;5364262;26;95907;-46
2024/04/11 00:43:25;;;;;;;0.30;0.20;;;;;;;25.70;32.90;100931.75;5364245;26;93818;-46
2024/04/11 00:46:27;;;;;;;0.10;0.10;;;;;;;25.69;32.86;100932.78;5365047;26;93952;-46
2024/04/11 00:48:57;;;;;;;0.20;0.20;;;;;;;25.70;32.88;100936.34;5332580;26;95883;-46
2024/04/11 00:51:24;;;;;;;0.22;0.20;;;;;;;25.70;32.75;100936.34;5329291;26;96034;-46
2024/04/11 00:53:58;;;;;;;0.10;0.10;;;;;;;25.69;32.99;100934.66;5328967;26;93831;-46
2024/04/11 00:56:26;;;;;;;0.20;0.10;;;;;;;25.68;32.94;100939.25;5329682;26;93930;-46
2024/04/11 00:58:56;;;;;;;0.40;0.20;;;;;;;25.67;32.89;100938.44;5328923;26;95931;-46
2024/04/11 01:05:40;;;;;;;0.10;0.10;;;;;;;25.64;33.06;100928.03;5331343;26;93977;-46
2024/04/11 01:08:07;;;;;;;0.20;0.10;;;;;;;25.65;32.79;100932.38;5329257;26;93977;-47
2024/04/11 01:10:37;;;;;;;0.10;0.10;;;;;;;25.64;33.10;100938.88;5328593;26;95921;-47
2024/04/11 01:13:05;;;;;;;0.20;0.10;;;;;;;25.65;33.18;100934.28;5329475;26;95928;-46
2024/04/11 01:15:37;;;;;;;0.32;0.10;;;;;;;25.65;32.84;100940.53;5329264;26;93862;-45
2024/04/11 01:18:05;;;;;;;0.30;0.20;;;;;;;25.63;32.94;100937.19;5329449;26;94480;-45
2024/04/11 01:20:36;;;;;;;0.20;0.10;;;;;;;25.62;33.08;100940.97;5328142;26;95918;-45
2024/04/11 01:23:07;;;;;;;0.10;0.10;;;;;;;25.63;33.17;100941.78;5329075;26;94563;-46
2024/04/11 01:25:37;;;;;;;0.20;0.10;;;;;;;25.61;32.87;100939.28;5329383;26;93845;-45
2024/04/11 01:28:05;;;;;;;1.02;0.17;;;;;;;25.61;32.96;100939.28;5329873;26;93918;-45
2024/04/11 01:30:35;;;;;;;0.10;0.10;;;;;;;25.61;33.09;100949.31;5329069;26;95992;-46
2024/04/11 01:33:09;;;;;;;0.43;0.20;;;;;;;25.60;32.90;100945.78;5328809;26;95921;-46
2024/04/11 01:35:40;;;;;;;0.80;0.13;;;;;;;25.58;33.18;100945.16;5329491;26;93791;-46
2024/04/11 01:38:10;;;;;;;0.10;0.10;;;;;;;25.59;33.16;100935.13;5329855;26;93975;-45
2024/04/11 01:40:46;;;;;;;0.50;0.20;;;;;;;25.59;33.14;100949.53;5328176;26;95889;-46
2024/04/11 01:43:14;;;;;;;0.15;0.15;;;;;;;25.58;32.91;100947.03;5328509;26;96043;-45
2024/04/11 01:49:36;;;;;;;0.20;0.20;;;;;;;25.57;32.95;100950.81;5330706;26;93881;-46
2024/04/11 01:52:09;;;;;;;0.10;0.10;;;;;;;25.56;33.01;100951.84;5328626;26;96007;-46
2024/04/11 01:54:43;;;;;;;0.35;0.20;;;;;;;25.56;33.04;100949.13;5328789;26;95959;-46
2024/04/11 01:57:10;;;;;;;0.10;0.10;;;;;;;25.56;32.95;100957.25;5329117;26;93764;-46
2024/04/11 01:59:41;;;;;;;0.20;0.10;;;;;;;25.56;33.14;100952.69;5328605;26;93980;-45
2024/04/11 02:03:30;;;;;;;0.43;0.20;;;;;;;25.55;32.94;100948.31;5327798;26;95902;-46
2024/04/11 02:06:03;;;;;;;0.22;0.10;;;;;;;25.53;32.80;100953.09;5328206;26;96043;-45
2024/04/11 02:08:34;;;;;;;0.30;0.20;;;;;;;25.54;33.03;100952.06;5328527;26;93821;-45
2024/04/11 02:11:04;;;;;;;0.20;0.10;;;;;;;25.54;33.02;100953.97;5328747;26;93947;-46
2024/04/11 02:13:34;;;;;;;0.30;0.10;;;;;;;25.53;33.09;100958.53;5327820;26;96008;-47
2024/04/11 02:16:03;;;;;;;0.10;0.10;;;;;;;25.53;32.93;100953.09;5327916;26;95932;-46
2024/04/11 02:18:34;;;;;;;0.25;0.10;;;;;;;25.52;33.03;100950.63;5329075;26;93788;-47
2024/04/11 02:21:04;;;;;;;0.52;0.17;;;;;;;25.52;32.95;100947.91;5327967;26;94020;-47
2024/04/11 02:23:34;;;;;;;0.43;0.20;;;;;;;25.51;33.24;100963.38;5328139;26;96058;-46
2024/04/11 02:26:04;;;;;;;0.32;0.10;;;;;;;25.50;33.14;100958.97;5327761;26;95956;-45
2024/04/11 02:28:34;;;;;;;0.00;0.00;;;;;;;25.50;32.97;100961.69;5328408;26;93929;-46
2024/04/11 02:31:02;;;;;;;0.52;0.10;;;;;;;25.49;33.13;100951.91;5328769;26;93979;-45
2024/04/11 02:33:35;;;;;;;0.30;0.20;;;;;;;25.49;33.15;100968.16;5327877;26;95817;-46
2024/04/11 02:36:06;;;;;;;0.28;0.20;;;;;;;25.47;33.34;100956.69;5327814;26;96294;-46
2024/04/11 02:38:36;;;;;;;0.10;0.10;;;;;;;25.47;33.24;100958.59;5328082;26;93829;-46
2024/04/11 02:41:07;;;;;;;0.32;0.20;;;;;;;25.46;33.20;100955.03;5328595;26;93946;-46
2024/04/11 02:43:39;;;;;;;0.20;0.10;;;;;;;25.46;33.01;100957.75;5327819;26;95906;-46
2024/04/11 02:46:26;;;;;;;0.30;0.20;;;;;;;25.44;33.15;100960.66;5327546;26;95792;-46
2024/04/11 02:48:56;;;;;;;0.45;0.20;;;;;;;25.44;33.01;100967.97;5328486;26;93969;-46
2024/04/11 02:51:24;;;;;;;0.20;0.10;;;;;;;25.43;33.07;100969.88;5328094;26;93993;-46
2024/04/11 02:53:54;;;;;;;0.80;0.10;;;;;;;25.43;33.15;100971.72;5327413;26;96211;-46
2024/04/11 02:56:26;;;;;;;0.65;0.20;;;;;;;25.44;32.94;100976.13;5327535;26;96189;-47
2024/04/11 02:58:57;;;;;;;0.28;0.20;;;;;;;25.44;33.16;100973.41;5327837;26;93880;-46
2024/04/11 03:02:28;;;;;;;0.47;0.22;;;;;;;25.44;33.18;100981.53;5327573;26;94546;-46
2024/04/11 03:04:56;;;;;;;0.30;0.13;;;;;;;25.43;32.91;100982.56;5326692;26;96028;-46
2024/04/11 03:07:27;;;;;;;0.13;0.13;;;;;;;25.43;33.19;100980.72;5337105;26;95915;-46
2024/04/11 03:09:54;;;;;;;0.70;0.20;;;;;;;25.42;33.19;100979.03;5362845;26;93841;-46
2024/04/11 03:12:28;;;;;;;0.30;0.20;;;;;;;25.43;33.18;100987.97;5362549;26;94615;-47
2024/04/11 03:14:55;;;;;;;0.33;0.20;;;;;;;25.42;33.16;100983.63;5362394;26;96121;-46
2024/04/11 03:17:47;;;;;;;0.15;0.10;;;;;;;25.42;32.83;100983.63;5362139;26;95932;-46
2024/04/11 03:20:17;;;;;;;0.32;0.20;;;;;;;25.41;33.29;100995.53;5362534;26;93872;-46
2024/04/11 03:22:48;;;;;;;0.17;0.10;;;;;;;25.41;33.05;100998.25;5363286;26;94502;-46
2024/04/11 03:25:15;;;;;;;0.10;0.10;;;;;;;25.40;33.01;100999.25;5362414;26;95882;-46
2024/04/11 03:27:48;;;;;;;0.45;0.20;;;;;;;25.38;33.18;101002.22;5362085;26;95886;-47
2024/04/11 03:30:15;;;;;;;0.80;0.22;;;;;;;25.40;32.96;101007.41;5361860;26;93905;-47
2024/04/11 03:32:43;;;;;;;0.22;0.10;;;;;;;25.38;33.27;101013.03;5362504;26;95016;-46
2024/04/11 03:35:13;;;;;;;0.10;0.10;;;;;;;25.37;33.09;101016.78;5364560;26;95891;-47
2024/04/11 03:37:41;;;;;;;0.10;0.08;;;;;;;25.36;33.09;101022.44;5365547;26;96064;-47
2024/04/11 03:40:12;;;;;;;0.25;0.17;;;;;;;25.36;33.18;101015.13;5365427;26;93791;-47
2024/04/11 03:42:42;;;;;;;0.28;0.10;;;;;;;25.36;33.19;101022.44;5365544;26;93914;-47
2024/04/11 03:45:22;;;;;;;0.10;0.10;;;;;;;25.35;33.03;101031.59;5364532;26;95951;-47
2024/04/11 03:47:50;;;;;;;0.25;0.20;;;;;;;25.34;33.07;101038.06;5365409;26;96112;-47
2024/04/11 03:50:21;;;;;;;0.10;0.10;;;;;;;25.33;33.29;101033.72;5365621;26;94784;-47
2024/04/11 03:52:48;;;;;;;0.30;0.10;;;;;;;25.33;32.99;101033.72;5366432;26;94969;-47
2024/04/11 03:55:18;;;;;;;0.20;0.20;;;;;;;25.32;32.92;101040.16;5364649;26;95918;-46
2024/04/11 03:57:46;;;;;;;0.38;0.10;;;;;;;25.31;33.21;101052.88;5364790;26;95930;-46
2024/04/11 04:00:24;;;;;;;0.10;0.10;;;;;;;25.31;33.07;101046.63;5365329;26;93857;-46
2024/04/11 04:15:21;;;;;;;0.30;0.10;;;;;;;25.29;33.06;101048.72;5368044;26;93895;-46
2024/04/11 04:17:51;;;;;;;0.20;0.10;;;;;;;25.30;33.23;101051.25;5364834;26;93917;-46
2024/04/11 04:20:21;;;;;;;0.20;0.10;;;;;;;25.30;33.02;101050.38;5364435;26;96177;-45
2024/04/11 04:22:49;;;;;;;1.13;0.20;;;;;;;25.29;33.13;101048.72;5364680;26;95949;-46
2024/04/11 04:25:19;;;;;;;0.35;0.10;;;;;;;25.29;33.24;101056.84;5364650;26;93868;-46
2024/04/11 04:27:46;;;;;;;0.10;0.10;;;;;;;25.28;33.08;101056.03;5364962;26;93959;-45
2024/04/11 04:30:16;;;;;;;0.30;0.10;;;;;;;25.29;33.31;101059.56;5364634;26;95897;-46
2024/04/11 04:32:47;;;;;;;0.20;0.20;;;;;;;25.29;33.00;101057.69;5364047;26;95922;-46
2024/04/11 04:35:17;;;;;;;0.13;0.10;;;;;;;25.30;33.01;101066.63;5365086;26;93838;-46
2024/04/11 04:37:45;;;;;;;0.40;0.10;;;;;;;25.30;33.19;101063.94;5365293;26;93974;-46
2024/04/11 04:40:16;;;;;;;0.17;0.10;;;;;;;25.31;32.98;101065.63;5364536;26;95895;-46
2024/04/11 04:42:43;;;;;;;0.20;0.20;;;;;;;25.30;33.06;101070.22;5364768;26;96025;-46
2024/04/11 04:45:14;;;;;;;0.20;0.10;;;;;;;25.30;32.93;101067.50;5364077;26;93816;-46
2024/04/11 04:51:39;;;;;;;0.20;0.17;;;;;;;25.32;33.23;101072.69;5365787;26;94718;-47
2024/04/11 04:54:08;;;;;;;0.10;0.10;;;;;;;25.31;32.79;101073.75;5363788;26;96036;-46
2024/04/11 04:56:39;;;;;;;0.17;0.17;;;;;;;25.32;33.12;101078.09;5363992;26;94003;-46
2024/04/11 04:59:08;;;;;;;0.10;0.10;;;;;;;25.32;33.13;101075.41;5364671;26;94016;-46
2024/04/11 05:02:06;;;;;;;0.20;0.10;;;;;;;25.33;33.15;101077.06;5363883;26;95860;-46
2024/04/11 05:04:34;;;;;;;1.13;0.20;;;;;;;25.32;33.20;101075.41;5364586;26;95893;-47
2024/04/11 05:07:08;;;;;;;0.28;0.20;;;;;;;25.31;33.13;101073.75;5364242;26;93808;-47
2024/04/11 05:09:38;;;;;;;0.28;0.20;;;;;;;25.32;33.26;101081.66;5364582;26;93964;-47
2024/04/11 05:12:09;;;;;;;0.00;0.00;;;;;;;25.31;33.10;101085.41;5364182;26;95883;-47
2024/04/11 05:14:38;;;;;;;0.10;0.10;;;;;;;25.30;32.86;101083.75;5364453;26;96023;-46
2024/04/11 05:17:48;;;;;;;0.10;0.10;;;;;;;25.31;32.90;101090.00;5364505;26;93806;-46
2024/04/11 05:20:17;;;;;;;0.52;0.15;;;;;;;25.28;33.18;101085.84;5365157;26;93912;-46
2024/04/11 05:22:51;;;;;;;0.17;0.10;;;;;;;25.30;33.10;101093.75;5364473;26;95865;-47
2024/04/11 05:25:19;;;;;;;0.13;0.10;;;;;;;25.28;33.11;101091.25;5364424;26;96065;-46
2024/04/11 05:27:50;;;;;;;0.10;0.10;;;;;;;25.28;32.92;101095.84;5364754;26;93804;-47
2024/04/11 05:30:19;;;;;;;0.13;0.10;;;;;;;25.28;33.18;101101.28;5364602;26;93941;-47
2024/04/11 05:32:49;;;;;;;0.00;0.00;;;;;;;25.28;32.88;101106.69;5364157;26;96515;-46
2024/04/11 05:35:23;;;;;;;0.10;0.10;;;;;;;25.28;32.94;101109.41;5364786;26;95812;-47
2024/04/11 05:37:57;;;;;;;0.25;0.20;;;;;;;25.28;32.88;101112.13;5364982;26;93917;-47
2024/04/11 05:40:24;;;;;;;0.30;0.10;;;;;;;25.28;33.02;101112.13;5364949;26;93945;-46
2024/04/11 05:42:55;;;;;;;0.10;0.10;;;;;;;25.27;32.81;101118.56;5363425;26;96043;-47
2024/04/11 05:45:23;;;;;;;0.10;0.10;;;;;;;25.27;32.95;101118.56;5364231;26;95884;-46
2024/04/11 05:47:55;;;;;;;0.30;0.10;;;;;;;25.27;32.62;101110.44;5364046;26;93905;-46
2024/04/11 05:50:23;;;;;;;0.10;0.10;;;;;;;25.27;33.07;101116.72;5364552;26;93938;-46
2024/04/11 05:52:53;;;;;;;0.32;0.10;;;;;;;25.28;32.94;101117.53;5364025;26;96064;-46
2024/04/11 05:55:23;;;;;;;0.20;0.10;;;;;;;25.29;33.08;101119.19;5363905;26;95850;-46
2024/04/11 05:57:54;;;;;;;0.10;0.10;;;;;;;25.29;32.93;101127.31;5362898;26;93780;-46
2024/04/11 06:00:23;;;;;;;0.13;0.10;;;;;;;25.28;32.92;101122.97;5364169;26;94019;-46
2024/04/11 06:02:54;;;;;;;0.38;0.13;;;;;;;25.30;32.96;101129.84;5363864;26;95855;-48
2024/04/11 06:05:22;;;;;;;0.57;0.20;;;;;;;25.30;33.02;101131.69;5363649;26;95935;-46
2024/04/11 06:07:52;;;;;;;0.00;0.00;;;;;;;25.29;32.75;101136.28;5363918;26;93785;-46
2024/04/11 06:10:20;;;;;;;0.38;0.20;;;;;;;25.29;32.75;101130.84;5364129;26;94027;-46
2024/04/11 06:12:53;;;;;;;0.20;0.10;;;;;;;25.29;32.85;101133.56;5364092;26;96221;-46
2024/04/11 06:15:21;;;;;;;0.45;0.20;;;;;;;25.29;32.83;101130.84;5364228;26;95925;-46
2024/04/11 06:25:35;;;;;;;0.40;0.10;;;;;;;25.27;32.83;101143.81;5365429;26;94445;-46
2024/04/11 06:28:06;;;;;;;0.10;0.10;;;;;;;25.28;32.62;101156.31;5364229;26;95980;-46
2024/04/11 06:30:38;;;;;;;0.85;0.20;;;;;;;25.28;32.86;101155.47;5364338;26;93942;-46
2024/04/11 06:37:31;;;;;;;0.00;0.00;;;;;;;25.27;32.71;101161.94;5294954;26;94164;-46
2024/04/11 06:39:59;;;;;;;0.32;0.10;;;;;;;25.27;32.91;101160.06;5293384;26;96043;-46
2024/04/11 06:42:29;;;;;;;0.10;0.10;;;;;;;25.29;32.70;101157.97;5294023;26;93798;-46
2024/04/11 06:44:59;;;;;;;0.15;0.10;;;;;;;25.29;32.82;101152.53;5293554;26;94019;-46
2024/04/11 06:47:29;;;;;;;0.10;0.10;;;;;;;25.30;32.88;101158.78;5293596;26;95934;-46
2024/04/11 06:50:06;;;;;;;0.10;0.10;;;;;;;25.31;32.86;101158.59;5293926;26;96188;-46
2024/04/11 06:52:36;;;;;;;0.13;0.10;;;;;;;25.31;32.87;101161.28;5293519;26;93805;-47
2024/04/11 06:55:05;;;;;;;0.43;0.20;;;;;;;25.33;32.65;101169.22;5294016;26;93999;-48
2024/04/11 06:57:37;;;;;;;0.10;0.10;;;;;;;25.34;32.85;101173.59;5293370;26;95918;-48
2024/04/11 07:00:14;;;;;;;0.10;0.10;;;;;;;25.36;32.59;101174.22;5292857;26;95924;-47
2024/04/11 07:04:00;;;;;;;0.32;0.10;;;;;;;25.38;32.79;101172.13;5293458;26;93874;-46
2024/04/11 07:06:29;;;;;;;0.15;0.10;;;;;;;25.40;32.79;101181.72;5293913;26;93888;-47
2024/04/11 07:09:03;;;;;;;0.10;0.00;;;;;;;25.41;32.54;101169.00;5295131;26;96198;-47
2024/04/11 07:11:32;;;;;;;0.10;0.10;;;;;;;25.41;32.70;101175.25;5295644;26;95913;-47
2024/04/11 07:14:10;;;;;;;0.10;0.10;;;;;;;25.43;32.69;101180.44;5296106;26;93852;-46
2024/04/11 07:16:44;;;;;;;0.15;0.10;;;;;;;25.44;32.67;101180.25;5296171;26;93995;-46
2024/04/11 07:19:32;;;;;;;0.30;0.10;;;;;;;25.45;32.56;101181.06;5298586;26;94306;-47
2024/04/11 07:21:59;;;;;;;0.08;0.00;;;;;;;25.46;32.48;101188.19;5296192;26;95889;-47
2024/04/11 07:24:29;;;;;;;0.10;0.00;;;;;;;25.45;32.75;101178.34;5296118;26;93935;-47
2024/04/11 07:26:57;;;;;;;0.03;0.03;;;;;;;25.45;32.73;101187.31;5296382;26;94040;-46
2024/04/11 07:29:29;;;;;;;0.20;0.10;;;;;;;25.47;32.56;101197.13;5295395;26;95869;-46
2024/04/11 07:35:55;;;;;;;0.10;0.10;;;;;;;25.47;32.62;101191.72;5318198;26;94488;-46
2024/04/11 07:38:26;;;;;;;0.35;0.10;;;;;;;25.45;32.54;101184.59;5366186;26;93962;-46
2024/04/11 07:40:59;;;;;;;0.43;0.10;;;;;;;25.47;32.76;101191.72;5365840;26;95892;-46
2024/04/11 07:43:30;;;;;;;0.43;0.10;;;;;;;25.50;32.53;101196.72;5365733;26;95760;-46
2024/04/11 07:46:04;;;;;;;0.10;0.10;;;;;;;25.50;32.71;101200.25;5366300;26;93792;-46
2024/04/11 07:52:10;;;;;;;0.70;0.10;;;;;;;25.53;32.46;101209.84;5368913;26;94321;-47
2024/04/11 07:54:38;;;;;;;;;;;;;;;25.53;32.41;101210.66;5366026;26;95949;-46
2024/04/11 07:57:17;;;;;;;0.63;0.15;;;;;;;25.54;32.49;101215.06;5365830;26;93822;-46
2024/04/11 07:59:45;;;;;;;0.10;0.10;;;;;;;25.55;32.37;101221.31;5366226;26;93835;-46
2024/04/11 08:03:13;;;;;;;0.20;0.10;;;;;;;25.56;32.70;101225.66;5365435;26;95934;-46
2024/04/11 08:05:41;;;;;;;0.17;0.10;;;;;;;25.54;32.84;101220.47;5365417;26;95951;-46
2024/04/11 08:08:15;;;;;;;0.20;0.10;;;;;;;25.55;32.43;101222.13;5365957;26;93875;-47
2024/04/11 08:10:45;;;;;;;0.30;0.07;;;;;;;25.56;32.69;101223.81;5365868;26;93919;-47
2024/04/11 08:13:18;;;;;;;0.10;0.10;;;;;;;25.56;32.66;101220.25;5365494;26;95962;-46
2024/04/11 08:15:46;;;;;;;0.10;0.10;;;;;;;25.56;32.69;101228.38;5365923;26;95964;-48
2024/04/11 08:18:17;;;;;;;0.10;0.10;;;;;;;25.55;32.75;101227.56;5366034;26;93856;-46
2024/04/11 08:20:45;;;;;;;0.20;0.10;;;;;;;25.55;32.58;101224.84;5365135;26;93959;-46
2024/04/11 08:23:20;;;;;;;0.25;0.10;;;;;;;25.57;32.81;101225.47;5364658;26;96198;-47
2024/04/11 08:25:51;;;;;;;0.70;0.10;;;;;;;25.57;32.78;101227.34;5364917;26;95723;-46
2024/04/11 08:28:21;;;;;;;0.20;0.10;;;;;;;25.58;32.44;101227.13;5343186;26;94990;-46
2024/04/11 08:30:51;;;;;;;0.10;0.10;;;;;;;25.58;32.65;101235.25;5330574;26;94492;-46
2024/04/11 08:34:07;;;;;;;0.10;0.05;;;;;;;25.59;32.36;101223.38;5329657;26;95905;-46
2024/04/11 08:36:37;;;;;;;0.20;0.03;;;;;;;25.63;32.45;101227.34;5329608;26;96024;-46
2024/04/11 08:39:09;;;;;;;1.13;0.20;;;;;;;25.64;32.60;101223.59;5330450;26;93809;-46
2024/04/11 08:41:37;;;;;;;0.10;0.10;;;;;;;25.64;32.37;101228.16;5330483;26;93906;-46
2024/04/11 08:44:07;;;;;;;0.13;0.13;;;;;;;25.66;32.44;101229.63;5329479;26;95862;-47
2024/04/11 08:46:36;;;;;;;0.15;0.15;;;;;;;25.66;32.44;101235.03;5329713;26;95889;-46
2024/04/11 08:49:07;;;;;;;0.03;0.03;;;;;;;25.69;32.41;101243.78;5342418;26;94246;-46
2024/04/11 08:51:35;;;;;;;0.30;0.10;;;;;;;25.70;32.68;101245.47;5365299;26;93911;-46
2024/04/11 08:54:12;;;;;;;0.10;0.10;;;;;;;25.71;32.47;101244.44;5365007;26;95907;-46
2024/04/11 08:56:41;;;;;;;0.15;0.10;;;;;;;25.70;32.50;101240.88;5364781;26;95917;-46
2024/04/11 08:59:12;;;;;;;0.40;0.20;;;;;;;25.72;32.75;101243.38;5364848;26;93841;-46
2024/04/11 09:01:40;;;;;;;0.40;0.20;;;;;;;25.72;32.48;101244.22;5364562;26;94405;-46
2024/04/11 09:08:10;;;;;;;0.10;0.10;;;;;;;25.73;32.77;101253.19;5366873;26;93931;-46
2024/04/11 09:10:41;;;;;;;0.15;0.10;;;;;;;25.74;32.38;101244.00;5365064;26;93944;-46
2024/04/11 09:13:18;;;;;;;0.10;0.10;;;;;;;25.75;32.47;101242.94;5365886;26;93915;-46
2024/04/11 09:15:45;;;;;;;0.25;0.17;;;;;;;25.76;32.55;101240.03;5363705;26;95899;-47
2024/04/11 09:22:50;;;;;;;0.10;0.05;;;;;;;25.76;32.49;101250.06;5366840;26;94384;-46
2024/04/11 09:25:26;;;;;;;0.10;0.10;;;;;;;25.78;32.72;101256.09;5364427;26;93983;-46
2024/04/11 09:28:01;;;;;;;0.10;0.10;;;;;;;25.79;32.34;101264.00;5364335;26;96249;-46
2024/04/11 09:30:30;;;;;;;0.95;0.20;;;;;;;25.78;32.68;101265.06;5364016;26;95821;-46
2024/04/11 09:37:14;;;;;;;0.10;0.10;;;;;;;25.82;32.67;101260.03;5345122;26;93838;-46
2024/04/11 09:39:45;;;;;;;0.30;0.20;;;;;;;25.82;32.59;101260.03;5328093;26;95953;-46
2024/04/11 09:42:18;;;;;;;0.73;0.10;;;;;;;25.82;32.35;101260.03;5328548;26;96126;-46
2024/04/11 09:44:50;;;;;;;0.10;0.10;;;;;;;25.82;32.77;101263.59;5328731;26;93952;-46
2024/04/11 09:47:26;;;;;;;0.00;0.00;;;;;;;25.86;32.62;101264.88;5329452;26;93986;-46
2024/04/11 09:54:15;;;;;;;0.30;0.10;;;;;;;25.88;32.53;101264.66;5330460;26;94055;-46
2024/04/11 09:56:44;;;;;;;0.30;0.10;;;;;;;25.88;32.71;101270.91;5329377;26;93790;-46
2024/04/11 09:59:15;;;;;;;0.10;0.10;;;;;;;25.89;32.49;101271.75;5329250;26;93931;-46
2024/04/11 10:01:48;;;;;;;0.30;0.10;;;;;;;25.88;32.69;101275.50;5328838;26;96037;-46
2024/04/11 10:05:16;;;;;;;0.30;0.05;;;;;;;25.91;32.46;101272.38;5328858;26;95975;-46
2024/04/11 10:07:47;;;;;;;0.00;0.00;;;;;;;25.91;32.67;101271.50;5329225;26;93749;-46
2024/04/11 10:10:25;;;;;;;0.10;0.10;;;;;;;25.93;32.61;101267.53;5329536;26;93899;-46
2024/04/11 10:12:54;;;;;;;0.73;0.13;;;;;;;25.93;32.35;101269.44;5328193;26;96138;-47
2024/04/11 10:15:26;;;;;;;0.38;0.22;;;;;;;25.94;32.71;101265.69;5328700;26;96002;-46
2024/04/11 10:18:06;;;;;;;0.20;0.17;;;;;;;25.93;32.61;101261.28;5329573;26;93811;-46
2024/04/11 10:20:43;;;;;;;0.00;0.00;;;;;;;25.95;32.76;101268.16;5329321;26;93934;-46
2024/04/11 10:23:15;;;;;;;0.40;0.10;;;;;;;25.94;32.55;101277.38;5328566;26;95982;-46
2024/04/11 10:25:51;;;;;;;0.20;0.10;;;;;;;25.96;32.81;101267.16;5328573;26;96012;-46
2024/04/11 10:28:19;;;;;;;0.32;0.10;;;;;;;25.98;32.69;101262.31;5328904;26;93768;-46
2024/04/11 10:30:51;;;;;;;0.90;0.20;;;;;;;25.98;32.71;101253.34;5328737;26;94015;-46
2024/04/11 10:37:15;;;;;;;0.10;0.10;;;;;;;25.98;32.82;101262.31;5330273;26;93944;-46
2024/04/11 10:39:42;;;;;;;0.20;0.20;;;;;;;25.98;32.60;101266.91;5363724;26;93843;-46
2024/04/11 10:42:13;;;;;;;0.10;0.10;;;;;;;25.99;32.77;101269.44;5363415;26;93911;-46
2024/04/11 10:44:43;;;;;;;0.95;0.20;;;;;;;26.01;32.48;101263.78;5363196;26;95944;-46
2024/04/11 10:47:17;;;;;;;0.30;0.10;;;;;;;26.02;32.70;101263.56;5363742;26;96045;-46
2024/04/11 10:53:47;;;;;;;0.20;0.13;;;;;;;26.06;32.61;101258.53;5365610;26;93740;-46
2024/04/11 10:56:20;;;;;;;0.10;0.10;;;;;;;26.05;32.75;101252.28;5363502;26;96336;-46
2024/04/11 10:58:53;;;;;;;0.30;0.10;;;;;;;26.05;33.00;101257.72;5363662;26;95812;-46
2024/04/11 11:01:26;;;;;;;0.10;0.10;;;;;;;26.05;32.75;101251.44;5363848;26;93858;-47
2024/04/11 11:04:54;;;;;;;0.32;0.20;;;;;;;26.05;32.77;101255.00;5363943;26;93897;-47
2024/04/11 11:07:23;;;;;;;0.10;0.10;;;;;;;26.06;32.80;101253.94;5362206;26;95782;-46
2024/04/11 11:09:57;;;;;;;0.10;0.10;;;;;;;26.08;32.65;101251.84;5362791;26;95885;-47
2024/04/11 11:12:24;;;;;;;0.10;0.10;;;;;;;26.06;32.88;101245.78;5363302;26;94495;-47
2024/04/11 11:14:55;;;;;;;0.43;0.20;;;;;;;26.07;32.73;101252.91;5363564;26;93899;-47
2024/04/11 11:17:27;;;;;;;0.45;0.15;;;;;;;26.07;32.78;101252.91;5363113;26;96096;-47
2024/04/11 11:20:28;;;;;;;0.40;0.20;;;;;;;26.07;32.79;101249.38;5363059;26;96285;-47
2024/04/11 11:22:58;;;;;;;0.77;0.10;;;;;;;26.06;33.05;101253.94;5363393;26;94963;-46
2024/04/11 11:25:32;;;;;;;0.10;0.10;;;;;;;26.06;32.98;101245.78;5363329;26;93906;-46
2024/04/11 11:28:01;;;;;;;0.10;0.10;;;;;;;26.08;32.99;101251.84;5362688;26;95906;-46
2024/04/11 11:30:31;;;;;;;0.57;0.20;;;;;;;26.09;32.66;101256.25;5362249;26;96085;-46
2024/04/11 11:36:57;;;;;;;0.30;0.20;;;;;;;26.09;32.91;101245.38;5365206;26;93810;-46
2024/04/11 11:39:25;;;;;;;0.25;0.20;;;;;;;26.11;32.79;101242.44;5362440;26;95744;-46
2024/04/11 11:42:08;;;;;;;0.35;0.20;;;;;;;26.12;32.76;101243.28;5362068;26;94815;-46
2024/04/11 11:45:05;;;;;;;0.10;0.10;;;;;;;26.10;32.98;101251.66;5362489;26;93838;-45
2024/04/11 11:47:36;;;;;;;0.10;0.10;;;;;;;26.12;32.99;101248.69;5362249;26;93960;-46
2024/04/11 11:58:18;;;;;;;1.15;0.20;;;;;;;26.14;32.96;101230.31;5368641;26;93821;-46
2024/04/11 12:00:50;;;;;;;0.17;0.10;;;;;;;26.13;33.00;101237.63;5366023;26;93903;-46
2024/04/11 12:03:22;;;;;;;0.10;0.10;;;;;;;26.15;32.92;101232.00;5365024;26;96007;-46
2024/04/11 12:06:00;;;;;;;0.50;0.20;;;;;;;26.14;32.90;101228.44;5365351;26;96128;-46
2024/04/11 12:08:32;;;;;;;0.55;0.20;;;;;;;26.14;32.76;101220.31;5365870;26;93762;-46
2024/04/11 12:11:15;;;;;;;0.10;0.10;;;;;;;26.14;33.13;101217.59;5365952;26;93919;-46
2024/04/11 12:13:51;;;;;;;0.38;0.10;;;;;;;26.15;33.09;101213.84;5365525;26;95908;-46
2024/04/11 12:16:19;;;;;;;0.30;0.10;;;;;;;26.15;33.17;101204.88;5365348;26;96009;-46
2024/04/11 12:18:54;;;;;;;0.13;0.10;;;;;;;26.16;33.09;101201.94;5365660;26;93791;-46
2024/04/11 12:21:26;;;;;;;0.45;0.20;;;;;;;26.16;33.12;101195.66;5365807;26;93900;-46
2024/04/11 12:23:58;;;;;;;0.20;0.10;;;;;;;26.16;33.12;101191.06;5365755;26;95981;-46
2024/04/11 12:26:29;;;;;;;0.20;0.20;;;;;;;26.17;32.97;101191.91;5365014;26;96236;-46
2024/04/11 12:29:03;;;;;;;0.20;0.20;;;;;;;26.19;33.08;101195.22;5365109;26;94692;-46
2024/04/11 12:31:32;;;;;;;0.45;0.20;;;;;;;26.19;32.96;101192.53;5365553;26;93972;-46
2024/04/11 12:34:04;;;;;;;0.30;0.20;;;;;;;26.19;33.07;101192.53;5365173;26;95997;-46
2024/04/11 12:36:46;;;;;;;0.30;0.20;;;;;;;26.20;32.84;101191.50;5364982;26;95954;-47
2024/04/11 12:39:21;;;;;;;0.25;0.20;;;;;;;26.19;32.99;101179.78;5365521;26;93825;-46
2024/04/11 12:41:50;;;;;;;0.47;0.20;;;;;;;26.20;33.05;101186.06;5365319;26;93898;-47
2024/04/11 12:44:26;;;;;;;1.27;0.20;;;;;;;26.22;32.93;101178.50;5364897;26;96210;-47
2024/04/11 12:46:57;;;;;;;0.10;0.10;;;;;;;26.20;33.30;101176.03;5365308;26;96005;-46
2024/04/11 12:50:12;;;;;;;0.20;0.20;;;;;;;26.22;33.09;101178.50;5365604;26;94730;-47
2024/04/11 12:52:44;;;;;;;0.70;0.20;;;;;;;26.21;33.03;101174.97;5365407;26;94139;-47
2024/04/11 12:55:24;;;;;;;0.13;0.10;;;;;;;26.22;33.22;101167.66;5363990;26;95975;-47
2024/04/11 12:58:01;;;;;;;0.25;0.20;;;;;;;26.23;33.33;101163.91;5364386;26;96122;-47
2024/04/11 13:00:57;;;;;;;0.47;0.20;;;;;;;26.22;33.20;101160.34;5365395;26;93781;-46
2024/04/11 13:04:43;;;;;;;0.30;0.28;;;;;;;26.23;33.07;101153.88;5365382;26;93936;-48
2024/04/11 13:07:11;;;;;;;0.38;0.28;;;;;;;26.23;33.34;101150.34;5363778;26;95876;-46
2024/04/11 13:09:53;;;;;;;0.08;0.08;;;;;;;26.23;33.32;101143.03;5364615;26;96013;-46
2024/04/11 13:12:25;;;;;;;0.20;0.20;;;;;;;26.24;33.06;101150.09;5365048;26;93807;-46
2024/04/11 13:15:08;;;;;;;0.30;0.20;;;;;;;26.25;33.11;101151.78;5365667;26;93904;-45